Time;durP1;ratioP1;P1;durP2;ratioP2;P2;SDS_P1;SDS_P2;PMS_P1;PMS_P2;Temp;Humidity;BMP_temperature;BMP_pressure;BME280_temperature;BME280_humidity;BME280_pressure;Samples;Min_cycle;Max_cycle;Signal;HPM_P1;HPM_P2
2023/09/30 00:02:13;;;;;;;;;;;;;;;23.34;34.09;99017.56;5012358;28;19992;-84
2023/09/30 00:04:38;;;;;;;;;;;;;;;23.35;34.30;99024.53;5013574;28;19925;-85
2023/09/30 00:07:04;;;;;;;;;;;;;;;23.35;34.35;99020.03;5013583;28;19922;-85
2023/09/30 00:09:30;;;;;;;;;;;;;;;23.35;34.35;99019.22;5011976;28;19917;-85
2023/09/30 00:11:55;;;;;;;;;;;;;;;23.36;34.29;99020.88;5013296;28;20403;-86
2023/09/30 00:14:20;;;;;;;;;;;;;;;23.35;34.36;99024.53;5012047;28;19923;-84
2023/09/30 00:16:46;;;;;;;;;;;;;;;23.36;34.18;99019.03;5011344;28;19917;-86
2023/09/30 00:19:11;;;;;;;;;;;;;;;23.37;34.23;99015.34;5013860;28;20064;-85
2023/09/30 00:21:36;;;;;;;;;;;;;;;23.37;33.88;99020.69;5017315;28;20369;-86
2023/09/30 00:24:02;;;;;;;;;;;;;;;23.37;34.17;99019.84;5018257;28;19941;-86
2023/09/30 00:26:27;;;;;;;;;;;;;;;23.37;33.92;99019.84;5019702;28;19944;-86
2023/09/30 00:28:52;;;;;;;;;;;;;;;23.37;33.81;99017.16;5004143;28;19924;-86
2023/09/30 00:31:18;;;;;;;;;;;;;;;23.37;33.89;99012.69;5021115;28;19921;-86
2023/09/30 00:33:43;;;;;;;;;;;;;;;23.38;34.00;99010.84;5016829;28;19924;-85
2023/09/30 00:36:09;;;;;;;;;;;;;;;23.37;33.70;99002.03;5019417;28;19918;-85
2023/09/30 00:38:34;;;;;;;;;;;;;;;23.36;33.85;99005.72;5017768;28;19918;-85
2023/09/30 00:41:00;;;;;;;;;;;;;;;23.36;33.83;99000.38;5015293;28;19918;-85
2023/09/30 00:43:25;;;;;;;;;;;;;;;23.36;33.85;98997.72;5017289;28;19925;-86
2023/09/30 00:46:17;;;;;;;;;;;;;;;23.37;33.66;99001.19;5016439;28;20000;-86
2023/09/30 00:48:42;;;;;;;;;;;;;;;23.36;33.47;98999.56;5015599;28;19917;-86
2023/09/30 00:51:08;;;;;;;;;;;;;;;23.35;33.41;98996.06;5016520;28;19995;-85
2023/09/30 00:53:33;;;;;;;;;;;;;;;23.34;33.30;98990.91;5015381;28;19940;-86
2023/09/30 00:55:58;;;;;;;;;;;;;;;23.34;32.90;98988.25;5018032;28;19918;-86
2023/09/30 00:58:27;;;;;;;;;;;;;;;23.30;32.98;98990.50;5016664;28;19917;-86
2023/09/30 01:00:52;;;;;;;;;;;;;;;23.29;32.46;98981.69;5017317;28;19917;-87
2023/09/30 01:03:18;;;;;;;;;;;;;;;23.31;32.17;98989.50;5016374;28;19928;-86
2023/09/30 01:05:43;;;;;;;;;;;;;;;23.29;32.25;98989.69;5015330;28;19925;-87
2023/09/30 01:08:09;;;;;;;;;;;;;;;23.28;31.94;98988.03;5015658;28;19917;-87
2023/09/30 01:10:34;;;;;;;;;;;;;;;23.28;31.78;98985.38;5016399;28;19917;-86
2023/09/30 01:12:59;;;;;;;;;;;;;;;23.27;31.17;98980.22;5015611;28;20020;-84
2023/09/30 01:15:25;;;;;;;;;;;;;;;23.27;31.15;98977.56;5016427;28;19924;-87
2023/09/30 01:17:50;;;;;;;;;;;;;;;23.26;31.28;98987.41;5015791;28;20009;-87
2023/09/30 01:20:22;;;;;;;;;;;;;;;23.28;31.37;98981.88;5014528;28;20399;-87
2023/09/30 01:22:47;;;;;;;;;;;;;;;23.25;31.63;98975.09;5015203;28;19924;-85
2023/09/30 01:25:12;;;;;;;;;;;;;;;23.28;31.02;98979.22;5016179;28;20020;-86
2023/09/30 01:27:38;;;;;;;;;;;;;;;23.27;31.37;98980.22;5014684;28;19921;-85
2023/09/30 01:30:03;;;;;;;;;;;;;;;23.27;31.10;98985.56;5014681;28;19918;-85
2023/09/30 01:32:28;;;;;;;;;;;;;;;23.29;30.96;98979.03;5014638;28;19924;-84
2023/09/30 01:34:54;;;;;;;;;;;;;;;23.29;31.20;98976.38;5016018;28;19924;-85
2023/09/30 01:37:19;;;;;;;;;;;;;;;23.30;30.94;98977.19;4998280;28;20393;-85
2023/09/30 01:39:45;;;;;;;;;;;;;;;23.31;30.94;98976.16;5014548;28;19960;-85
2023/09/30 01:42:10;;;;;;;;;;;;;;;23.31;31.09;98973.50;5015422;28;20012;-85
2023/09/30 01:44:36;;;;;;;;;;;;;;;23.30;31.20;98990.50;5015833;28;19917;-85
2023/09/30 01:47:01;;;;;;;;;;;;;;;23.29;31.37;98983.50;5015931;28;19983;-86
2023/09/30 01:49:26;;;;;;;;;;;;;;;23.28;31.37;98984.53;5015227;28;20476;-86
2023/09/30 01:51:52;;;;;;;;;;;;;;;23.25;31.51;98990.25;5015667;28;19918;-85
2023/09/30 01:54:17;;;;;;;;;;;;;;;23.24;31.69;98980.63;5015463;28;19921;-84
2023/09/30 01:56:42;;;;;;;;;;;;;;;23.22;31.85;98986.13;5015219;28;20352;-85
2023/09/30 01:59:08;;;;;;;;;;;;;;;23.21;31.65;98981.00;5015635;28;19957;-78
2023/09/30 02:01:33;;;;;;;;;;;;;;;23.21;31.41;98981.81;5015463;28;20000;-76
2023/09/30 02:03:58;;;;;;;;;;;;;;;23.23;31.76;98986.94;5015017;28;20331;-75
2023/09/30 02:06:23;;;;;;;;;;;;;;;23.22;31.98;98980.81;5013574;28;20389;-75
2023/09/30 02:08:49;;;;;;;;;;;;;;;23.21;32.18;98988.97;5014770;28;19918;-75
2023/09/30 02:11:14;;;;;;;;;;;;;;;23.20;32.09;98980.19;5013895;28;19925;-75
2023/09/30 02:13:41;;;;;;;;;;;;;;;23.20;32.38;98993.50;5014733;28;19917;-75
2023/09/30 02:16:06;;;;;;;;;;;;;;;23.19;32.18;98991.84;5013478;28;20381;-75
2023/09/30 02:18:34;;;;;;;;;;;;;;;23.17;32.53;98983.22;5013773;28;19924;-75
2023/09/30 02:21:00;;;;;;;;;;;;;;;23.16;32.57;98986.09;5014839;28;19918;-75
2023/09/30 02:23:25;;;;;;;;;;;;;;;23.15;32.62;98984.44;5014784;28;19924;-75
2023/09/30 02:25:50;;;;;;;;;;;;;;;23.11;32.69;98984.81;5014780;28;19925;-74
2023/09/30 02:28:16;;;;;;;;;;;;;;;23.09;32.91;98981.53;5013216;28;19917;-75
2023/09/30 02:30:41;;;;;;;;;;;;;;;23.08;32.87;98987.03;5014045;28;19918;-75
2023/09/30 02:33:07;;;;;;;;;;;;;;;23.07;32.80;98991.53;5013304;28;20312;-75
2023/09/30 02:35:32;;;;;;;;;;;;;;;23.05;32.97;98980.22;5013154;28;20288;-75
2023/09/30 02:37:58;;;;;;;;;;;;;;;23.03;32.94;98987.59;5014498;28;20016;-75
2023/09/30 02:40:24;;;;;;;;;;;;;;;23.01;33.04;98981.63;5012937;28;20435;-75
2023/09/30 02:42:50;;;;;;;;;;;;;;;23.01;33.01;98980.78;5013949;28;19925;-75
2023/09/30 02:45:17;;;;;;;;;;;;;;;22.99;33.06;98980.16;5013899;28;19973;-75
2023/09/30 02:47:42;;;;;;;;;;;;;;;22.97;33.18;98980.34;5012511;28;19921;-75
2023/09/30 02:50:08;;;;;;;;;;;;;;;22.94;33.17;98981.59;5012644;28;20373;-76
2023/09/30 02:52:33;;;;;;;;;;;;;;;22.91;33.34;98976.63;5012594;28;19925;-75
2023/09/30 02:54:59;;;;;;;;;;;;;;;22.92;33.32;98972.94;5013977;28;20389;-75
2023/09/30 02:57:24;;;;;;;;;;;;;;;22.92;33.39;98982.78;5022856;28;20400;-75
2023/09/30 02:59:51;;;;;;;;;;;;;;;22.89;33.43;98968.00;5034013;28;20012;-76
2023/09/30 03:02:18;;;;;;;;;;;;;;;22.87;33.21;98970.03;5033428;28;19917;-75
2023/09/30 03:04:43;;;;;;;;;;;;;;;22.87;33.13;98972.69;5032592;28;20353;-75
2023/09/30 03:07:08;;;;;;;;;;;;;;;22.87;33.08;98964.72;5015840;28;19980;-75
2023/09/30 03:09:34;;;;;;;;;;;;;;;22.85;33.28;98969.41;5032530;28;19975;-75
2023/09/30 03:11:59;;;;;;;;;;;;;;;22.84;33.45;98980.25;5032265;28;19917;-75
2023/09/30 03:14:25;;;;;;;;;;;;;;;22.81;33.37;98976.13;5033477;28;19996;-76
2023/09/30 03:16:50;;;;;;;;;;;;;;;22.80;33.39;98971.81;5015295;28;20379;-75
2023/09/30 03:19:17;;;;;;;;;;;;;;;22.78;33.54;98973.84;5033855;28;19917;-75
2023/09/30 03:21:42;;;;;;;;;;;;;;;22.75;33.52;98967.03;5015618;28;20368;-75
2023/09/30 03:24:08;;;;;;;;;;;;;;;22.75;33.33;98971.56;5033111;28;19976;-75
2023/09/30 03:26:33;;;;;;;;;;;;;;;22.73;33.41;98971.75;5033152;28;19956;-75
2023/09/30 03:28:58;;;;;;;;;;;;;;;22.73;33.58;98973.59;5032933;28;19917;-76
2023/09/30 03:31:25;;;;;;;;;;;;;;;22.72;33.58;98971.94;5033809;28;20005;-76
2023/09/30 03:33:53;;;;;;;;;;;;;;;22.71;33.41;98973.78;5016578;28;19917;-75
2023/09/30 03:36:19;;;;;;;;;;;;;;;22.70;33.41;98980.09;5034101;28;19921;-75
2023/09/30 03:38:45;;;;;;;;;;;;;;;22.71;33.46;98980.94;5034268;28;19917;-75
2023/09/30 03:41:13;;;;;;;;;;;;;;;22.69;33.12;98978.47;5035925;28;20289;-76
2023/09/30 03:43:40;;;;;;;;;;;;;;;22.69;33.02;98983.81;5039437;28;19948;-76
2023/09/30 03:46:06;;;;;;;;;;;;;;;22.70;33.16;98973.97;5040069;28;20426;-85
2023/09/30 03:48:32;;;;;;;;;;;;;;;22.71;32.98;98981.75;5045142;28;19917;-86
2023/09/30 03:50:57;;;;;;;;;;;;;;;22.70;33.12;98987.28;5045461;28;19917;-86
2023/09/30 03:53:26;;;;;;;;;;;;;;;22.67;32.76;98991.13;5044119;28;19924;-86
2023/09/30 03:55:51;;;;;;;;;;;;;;;22.66;32.93;98988.66;5043854;28;19917;-86
2023/09/30 03:58:18;;;;;;;;;;;;;;;22.64;32.83;98993.34;5040489;28;19924;-86
2023/09/30 04:00:43;;;;;;;;;;;;;;;22.62;32.86;98992.72;5038853;28;19995;-85
2023/09/30 04:03:10;;;;;;;;;;;;;;;22.60;32.46;98995.56;5036228;28;19917;-86
2023/09/30 04:05:36;;;;;;;;;;;;;;;22.58;32.74;98993.09;5016782;28;19926;-85
2023/09/30 04:08:02;;;;;;;;;;;;;;;22.57;32.74;98990.63;5033085;28;20426;-86
2023/09/30 04:10:29;;;;;;;;;;;;;;;22.56;32.61;98988.97;5032171;28;19917;-86
2023/09/30 04:12:55;;;;;;;;;;;;;;;22.57;32.74;98994.09;5018166;28;19924;-86
2023/09/30 04:15:20;;;;;;;;;;;;;;;22.58;32.54;98997.56;5015996;28;19917;-87
2023/09/30 04:17:45;;;;;;;;;;;;;;;22.57;32.62;98996.75;5032388;28;19979;-85
2023/09/30 04:20:15;;;;;;;;;;;;;;;22.58;32.44;98992.25;5033455;28;19918;-87
2023/09/30 04:22:41;;;;;;;;;;;;;;;22.64;32.53;98994.16;5032638;28;19917;-87
2023/09/30 04:25:09;;;;;;;;;;;;;;;22.73;32.63;98994.88;5031941;28;19917;-85
2023/09/30 04:27:34;;;;;;;;;;;;;;;22.86;32.30;98994.19;5033316;28;19924;-86
2023/09/30 04:29:59;;;;;;;;;;;;;;;23.04;31.70;98993.72;5019024;28;19917;-85
2023/09/30 04:32:27;;;;;;;;;;;;;;;23.27;31.61;98991.69;5036294;28;20399;-86
2023/09/30 04:34:52;;;;;;;;;;;;;;;23.52;31.26;98991.28;5036804;28;19917;-87
2023/09/30 04:37:17;;;;;;;;;;;;;;;23.77;30.68;98996.97;5035689;28;19994;-86
2023/09/30 04:39:44;;;;;;;;;;;;;;;24.12;30.09;98996.97;5036262;28;19917;-85
2023/09/30 04:42:11;;;;;;;;;;;;;;;24.50;29.67;98993.00;5026905;28;20310;-86
2023/09/30 04:44:37;;;;;;;;;;;;;;;24.91;28.74;98992.06;5016529;28;19969;-85
2023/09/30 04:47:04;;;;;;;;;;;;;;;25.31;28.20;98999.31;4999198;28;20059;-85
2023/09/30 04:49:29;;;;;;;;;;;;;;;25.73;27.26;98997.19;5000126;28;19917;-87
2023/09/30 04:51:55;;;;;;;;;;;;;;;26.15;26.75;99001.19;5014450;28;19923;-77
2023/09/30 04:54:21;;;;;;;;;;;;;;;26.59;26.57;98997.91;5015149;28;19975;-77
2023/09/30 04:56:47;;;;;;;;;;;;;;;26.97;26.15;98991.72;5015068;28;19917;-76
2023/09/30 04:59:12;;;;;;;;;;;;;;;27.32;25.51;98993.94;5016271;28;19924;-77
2023/09/30 05:01:37;;;;;;;;;;;;;;;27.73;24.91;98998.69;5016278;28;20359;-77
2023/09/30 05:04:03;;;;;;;;;;;;;;;28.05;24.58;98997.75;5016385;28;20375;-76
2023/09/30 05:06:28;;;;;;;;;;;;;;;28.38;24.19;98999.19;4999994;28;19929;-77
2023/09/30 05:08:55;;;;;;;;;;;;;;;28.69;23.84;99004.34;5015848;28;19918;-77
2023/09/30 05:11:20;;;;;;;;;;;;;;;29.04;23.55;98997.44;5014613;28;19976;-75
2023/09/30 05:13:45;;;;;;;;;;;;;;;29.32;23.28;99012.94;5014461;28;19921;-76
2023/09/30 05:16:13;;;;;;;;;;;;;;;29.62;23.29;99009.31;5015529;28;19917;-76
2023/09/30 05:18:38;;;;;;;;;;;;;;;29.81;23.00;99014.56;5015726;28;19929;-75
2023/09/30 05:21:03;;;;;;;;;;;;;;;30.10;22.52;99010.88;5013820;28;19918;-79
2023/09/30 05:23:29;;;;;;;;;;;;;;;30.33;22.44;99017.28;5014748;28;20012;-76
2023/09/30 05:25:54;;;;;;;;;;;;;;;30.53;22.29;99016.03;5014205;28;19917;-75
2023/09/30 05:28:22;;;;;;;;;;;;;;;30.70;21.79;99016.09;5014045;28;20018;-77
2023/09/30 05:30:47;;;;;;;;;;;;;;;31.01;22.05;99020.16;5015343;28;19928;-77
2023/09/30 05:33:14;;;;;;;;;;;;;;;31.16;21.83;99016.91;5015431;28;19918;-77
2023/09/30 05:35:42;;;;;;;;;;;;;;;31.37;21.30;99026.13;5014158;28;19918;-77
2023/09/30 05:38:07;;;;;;;;;;;;;;;31.55;21.20;99020.50;5014315;28;19944;-77
2023/09/30 05:40:33;;;;;;;;;;;;;;;31.74;21.01;99029.13;5014951;28;20393;-77
2023/09/30 05:42:59;;;;;;;;;;;;;;;31.95;20.68;99017.78;5013750;28;19925;-76
2023/09/30 05:45:26;;;;;;;;;;;;;;;32.13;20.91;99020.19;5013736;28;19918;-77
2023/09/30 05:47:56;;;;;;;;;;;;;;;32.38;20.35;99018.84;5014024;28;20024;-77
2023/09/30 05:50:24;;;;;;;;;;;;;;;32.62;20.06;99014.81;5014299;28;20469;-77
2023/09/30 05:52:53;;;;;;;;;;;;;;;32.79;19.85;99020.09;4997751;28;19976;-77
2023/09/30 05:55:22;;;;;;;;;;;;;;;32.98;19.92;99023.25;5013998;28;20308;-77
2023/09/30 05:57:49;;;;;;;;;;;;;;;33.20;19.47;99025.09;5013791;28;19976;-77
2023/09/30 06:00:28;;;;;;;;;;;;;;;33.39;18.96;99020.09;5014916;28;20388;-75
2023/09/30 06:02:53;;;;;;;;;;;;;;;33.54;18.80;99012.06;5014528;28;19917;-76
2023/09/30 06:05:19;;;;;;;;;;;;;;;33.71;18.88;99019.22;4999216;28;19980;-77
2023/09/30 06:07:45;;;;;;;;;;;;;;;33.90;18.33;99011.47;5014943;28;19933;-76
2023/09/30 06:10:10;;;;;;;;;;;;;;;34.14;17.93;99016.44;5014458;28;19921;-77
2023/09/30 06:12:36;;;;;;;;;;;;;;;34.25;18.10;99018.13;5014592;28;20016;-76
2023/09/30 06:15:02;;;;;;;;;;;;;;;34.22;18.26;99018.63;5013647;28;19980;-77
2023/09/30 06:17:28;;;;;;;;;;;;;;;33.82;18.46;99023.59;5013817;28;20439;-77
2023/09/30 06:19:53;;;;;;;;;;;;;;;33.63;18.79;99017.78;4997124;28;19921;-77
2023/09/30 06:22:18;;;;;;;;;;;;;;;33.78;18.49;99018.97;5013479;28;19918;-76
2023/09/30 06:24:44;;;;;;;;;;;;;;;33.97;18.48;99025.59;5013263;28;19926;-77
2023/09/30 06:27:13;;;;;;;;;;;;;;;34.02;18.65;99028.31;5023473;28;19921;-77
2023/09/30 06:29:38;;;;;;;;;;;;;;;34.30;18.21;99029.00;5016888;28;19964;-77
2023/09/30 06:32:03;;;;;;;;;;;;;;;34.61;17.38;99027.16;5032693;28;19948;-78
2023/09/30 06:34:29;;;;;;;;;;;;;;;34.85;17.24;99031.28;5016312;28;19921;-78
2023/09/30 06:36:56;;;;;;;;;;;;;;;35.06;16.62;99032.09;5033145;28;19929;-81
2023/09/30 06:39:21;;;;;;;;;;;;;;;35.35;16.59;99037.84;5032752;28;19921;-78
2023/09/30 06:41:47;;;;;;;;;;;;;;;35.54;16.54;99038.06;5016327;28;19928;-78
2023/09/30 06:44:12;;;;;;;;;;;;;;;35.71;16.60;99029.63;5031490;28;20338;-83
2023/09/30 06:46:38;;;;;;;;;;;;;;;35.94;16.28;99030.91;5014206;28;19936;-84
2023/09/30 06:49:03;;;;;;;;;;;;;;;36.16;16.22;99038.72;5023522;28;19924;-84
2023/09/30 06:51:28;;;;;;;;;;;;;;;36.31;16.24;99035.16;5021424;28;19917;-83
2023/09/30 06:53:54;;;;;;;;;;;;;;;36.53;15.69;99029.31;5022846;28;19925;-82
2023/09/30 06:56:19;;;;;;;;;;;;;;;36.68;15.43;99028.38;5022791;28;20308;-83
2023/09/30 06:58:44;;;;;;;;;;;;;;;36.83;15.26;99035.69;5030060;28;20312;-85
2023/09/30 07:01:14;;;;;;;;;;;;;;;36.92;15.42;99042.09;5016854;28;20410;-84
2023/09/30 07:03:39;;;;;;;;;;;;;;;37.03;15.29;99033.88;5016169;28;19925;-82
2023/09/30 07:06:05;;;;;;;;;;;;;;;37.17;15.63;99044.94;5032946;28;19921;-84
2023/09/30 07:08:32;;;;;;;;;;;;;;;37.17;15.63;99040.28;5031949;28;19917;-87
2023/09/30 07:10:58;;;;;;;;;;;;;;;37.22;15.21;99039.47;5034885;28;20357;-83
2023/09/30 07:13:23;;;;;;;;;;;;;;;37.38;14.90;99040.94;5033184;28;19925;-83
2023/09/30 07:15:49;;;;;;;;;;;;;;;37.50;14.97;99035.13;5032265;28;20296;-83
2023/09/30 07:18:14;;;;;;;;;;;;;;;37.57;14.81;99034.75;5033907;28;19996;-84
2023/09/30 07:20:39;;;;;;;;;;;;;;;37.74;14.48;99046.03;5032860;28;19924;-84
2023/09/30 07:23:05;;;;;;;;;;;;;;;37.78;14.32;99038.09;5033541;28;19924;-76
2023/09/30 07:25:31;;;;;;;;;;;;;;;37.83;14.96;99038.06;5033126;28;19917;-71
2023/09/30 07:27:57;;;;;;;;;;;;;;;38.04;16.44;99054.16;5033063;28;20253;-76
2023/09/30 07:30:22;;;;;;;;;;;;;;;38.15;16.11;99045.59;5031572;28;20063;-77
2023/09/30 07:32:48;;;;;;;;;;;;;;;38.30;16.32;99047.31;5014656;28;19928;-73
2023/09/30 07:35:15;;;;;;;;;;;;;;;38.36;15.96;99051.56;5031903;28;19940;-74
2023/09/30 07:37:41;;;;;;;;;;;;;;;38.42;16.39;99054.25;5015225;28;19921;-75
2023/09/30 07:40:06;;;;;;;;;;;;;;;38.27;15.81;99055.25;5014443;28;19917;-73
2023/09/30 07:42:33;;;;;;;;;;;;;;;38.51;16.32;99060.66;5031402;28;19927;-76
2023/09/30 07:44:58;;;;;;;;;;;;;;;38.26;15.82;99053.66;5032455;28;20340;-86
2023/09/30 07:47:25;;;;;;;;;;;;;;;38.44;15.62;99057.47;5012375;28;20365;-81
2023/09/30 07:49:50;;;;;;;;;;;;;;;38.58;15.46;99063.81;5031037;28;20008;-78
2023/09/30 07:52:15;;;;;;;;;;;;;;;37.94;16.17;99066.81;5030837;28;20003;-81
2023/09/30 07:54:41;;;;;;;;;;;;;;;37.88;16.55;99056.25;5031936;28;19917;-85
2023/09/30 07:57:06;;;;;;;;;;;;;;;37.82;16.14;99056.28;5032465;28;19917;-78
2023/09/30 07:59:33;;;;;;;;;;;;;;;37.72;16.63;99061.88;5032029;28;20009;-80
2023/09/30 08:01:58;;;;;;;;;;;;;;;37.72;16.47;99067.31;5014180;28;19917;-79
2023/09/30 08:04:23;;;;;;;;;;;;;;;38.25;15.80;99062.91;5014318;28;20277;-81
2023/09/30 08:06:50;;;;;;;;;;;;;;;38.52;15.79;99074.00;5014226;28;19975;-79
2023/09/30 08:09:18;;;;;;;;;;;;;;;37.82;15.83;99080.00;5031930;28;20436;-83
2023/09/30 08:11:43;;;;;;;;;;;;;;;37.44;16.42;99080.63;5013567;28;20336;-79
2023/09/30 08:14:09;;;;;;;;;;;;;;;37.09;16.65;99085.25;5030230;28;19929;-82
2023/09/30 08:16:35;;;;;;;;;;;;;;;36.80;16.80;99081.66;5030164;28;19918;-82
2023/09/30 08:19:00;;;;;;;;;;;;;;;36.44;17.10;99088.09;5017120;28;20058;-80
2023/09/30 08:21:26;;;;;;;;;;;;;;;36.16;17.45;99090.34;5031378;28;20004;-79
2023/09/30 08:23:51;;;;;;;;;;;;;;;36.49;17.24;99079.09;5013620;28;19923;-79
2023/09/30 08:26:16;;;;;;;;;;;;;;;36.73;17.13;99093.66;5031451;28;19917;-81
2023/09/30 08:28:41;;;;;;;;;;;;;;;37.22;16.98;99083.81;5013736;28;19917;-81
2023/09/30 08:31:08;;;;;;;;;;;;;;;36.79;17.06;99085.47;5029525;28;19917;-82
2023/09/30 08:33:35;;;;;;;;;;;;;;;36.15;17.69;99090.59;5015060;28;19925;-80
2023/09/30 08:36:01;;;;;;;;;;;;;;;35.86;18.08;99086.63;5032053;28;19959;-77
2023/09/30 08:38:27;;;;;;;;;;;;;;;35.55;18.32;99091.28;5031182;28;19956;-78
2023/09/30 08:40:52;;;;;;;;;;;;;;;35.21;18.61;99085.56;5031022;28;20015;-85
2023/09/30 08:43:18;;;;;;;;;;;;;;;34.87;18.97;99086.06;5014289;28;19936;-83
2023/09/30 08:45:44;;;;;;;;;;;;;;;34.59;19.14;99088.97;5031434;28;20396;-81
2023/09/30 08:48:10;;;;;;;;;;;;;;;34.27;19.82;99083.72;5031475;28;19917;-81
2023/09/30 08:50:35;;;;;;;;;;;;;;;34.01;20.23;99080.03;5031192;28;19918;-83
2023/09/30 08:53:00;;;;;;;;;;;;;;;33.76;20.01;99084.22;5031336;28;20349;-79
2023/09/30 08:55:25;;;;;;;;;;;;;;;33.55;20.50;99077.81;5032251;28;19917;-84
2023/09/30 08:57:51;;;;;;;;;;;;;;;33.38;20.46;99083.38;5031529;28;20411;-85
2023/09/30 09:00:16;;;;;;;;;;;;;;;33.24;20.72;99076.78;5015408;28;20376;-85
2023/09/30 09:02:42;;;;;;;;;;;;;;;33.08;21.12;99075.78;5031225;28;19917;-83
2023/09/30 09:05:07;;;;;;;;;;;;;;;32.94;21.33;99081.63;5012717;28;20455;-82
2023/09/30 09:07:34;;;;;;;;;;;;;;;32.84;21.19;99084.22;5030847;28;20377;-82
2023/09/30 09:10:08;;;;;;;;;;;;;;;33.02;21.48;99080.34;5030764;28;20331;-86
2023/09/30 09:12:34;;;;;;;;;;;;;;;33.10;21.39;99074.47;5014007;28;20027;-73
2023/09/30 09:14:59;;;;;;;;;;;;;;;33.25;21.41;99073.00;5032179;28;19939;-73
2023/09/30 09:17:24;;;;;;;;;;;;;;;33.80;20.86;99071.78;5033771;28;20392;-74
2023/09/30 09:20:00;;;;;;;;;;;;;;;33.68;20.98;99076.56;5016357;28;19947;-74
2023/09/30 09:22:25;;;;;;;;;;;;;;;33.34;20.84;99079.56;5015360;28;19917;-73
2023/09/30 09:24:50;;;;;;;;;;;;;;;33.13;21.39;99073.97;5031768;28;19925;-73
2023/09/30 09:27:16;;;;;;;;;;;;;;;32.94;21.27;99075.38;5014976;28;19918;-72
2023/09/30 09:29:42;;;;;;;;;;;;;;;32.76;21.64;99071.16;5031234;28;19917;-73
2023/09/30 09:32:11;;;;;;;;;;;;;;;32.63;21.12;99080.47;5015937;28;19986;-74
2023/09/30 09:34:37;;;;;;;;;;;;;;;32.50;21.90;99070.88;5015538;28;19917;-72
2023/09/30 09:37:33;;;;;;;;;;;;;;;32.40;21.36;99068.03;5032716;28;20079;-73
2023/09/30 09:39:58;;;;;;;;;;;;;;;32.28;21.60;99071.69;5054334;28;19916;-72
2023/09/30 09:42:24;;;;;;;;;;;;;;;32.20;21.52;99071.31;5036967;28;20354;-72
2023/09/30 09:44:49;;;;;;;;;;;;;;;32.34;21.48;99061.78;5053969;28;19923;-73
2023/09/30 09:47:15;;;;;;;;;;;;;;;32.71;21.17;99074.63;5037067;28;20336;-72
2023/09/30 09:49:40;;;;;;;;;;;;;;;32.88;21.03;99063.72;5054520;28;20459;-72
2023/09/30 09:52:05;;;;;;;;;;;;;;;32.96;20.82;99060.56;5054618;28;19917;-74
2023/09/30 09:54:31;;;;;;;;;;;;;;;32.98;20.41;99069.22;5054706;28;19917;-73
2023/09/30 09:56:56;;;;;;;;;;;;;;;33.24;20.28;99061.38;5038512;28;19955;-72
2023/09/30 09:59:22;;;;;;;;;;;;;;;33.10;20.98;99057.41;5054237;28;19932;-72
2023/09/30 10:01:49;;;;;;;;;;;;;;;33.21;20.56;99066.47;5054977;28;19921;-72
2023/09/30 10:04:15;;;;;;;;;;;;;;;33.31;20.32;99053.84;5031399;28;19991;-74
2023/09/30 10:06:41;;;;;;;;;;;;;;;33.59;19.92;99046.47;5034296;28;20420;-72
2023/09/30 10:09:10;;;;;;;;;;;;;;;33.85;19.58;99049.34;5064091;28;19917;-72
2023/09/30 10:11:35;;;;;;;;;;;;;;;34.07;19.51;99057.31;5059228;28;19916;-75
2023/09/30 10:14:03;;;;;;;;;;;;;;;34.23;19.43;99041.97;5042357;28;19917;-80
2023/09/30 10:16:37;;;;;;;;;;;;;;;34.37;19.54;99026.03;5026180;28;19917;-75
2023/09/30 10:19:12;;;;;;;;;;;;;;;34.50;19.16;99032.84;5025777;28;19940;-80
2023/09/30 10:21:37;;;;;;;;;;;;;;;34.65;18.88;99029.34;5021168;28;19968;-73
2023/09/30 10:24:22;;;;;;;;;;;;;;;34.83;19.02;99028.03;5005418;28;20009;-84
2023/09/30 10:26:47;;;;;;;;;;;;;;;35.00;18.31;99025.88;5015731;28;19922;-82
2023/09/30 10:29:12;;;;;;;;;;;;;;;35.03;17.93;99030.78;5027443;28;19921;-90
2023/09/30 10:31:50;;;;;;;;;;;;;;;35.03;17.58;99022.63;5039377;28;20436;-89
2023/09/30 10:34:19;;;;;;;;;;;;;;;34.94;17.79;99016.13;5044660;28;20407;-94
2023/09/30 10:36:45;;;;;;;;;;;;;;;34.79;17.29;99020.44;5017747;28;19961;-83
2023/09/30 10:39:13;;;;;;;;;;;;;;;34.58;17.64;99008.72;5032697;28;19923;-81
2023/09/30 10:41:45;;;;;;;;;;;;;;;34.37;17.30;98997.03;5015438;28;19986;-85
2023/09/30 10:44:22;;;;;;;;;;;;;;;34.16;17.65;98998.84;5036175;28;19983;-84
2023/09/30 10:46:49;;;;;;;;;;;;;;;33.94;17.85;98992.78;5034059;28;19924;-85
2023/09/30 10:49:17;;;;;;;;;;;;;;;33.94;17.91;98988.22;5033503;28;19974;-84
2023/09/30 10:51:43;;;;;;;;;;;;;;;34.01;17.57;98991.47;5032888;28;19924;-83
2023/09/30 10:54:08;;;;;;;;;;;;;;;34.04;16.99;98990.94;5016382;28;19921;-81
2023/09/30 10:56:33;;;;;;;;;;;;;;;34.08;17.29;98977.69;5033060;28;20425;-81
2023/09/30 10:59:01;;;;;;;;;;;;;;;34.07;17.51;98981.47;5042212;28;19971;-89
2023/09/30 11:01:31;;;;;;;;;;;;;;;34.13;17.03;98983.13;5044137;28;19921;-93
2023/09/30 11:04:03;;;;;;;;;;;;;;;34.12;17.70;98976.06;5022845;28;19925;-89
2023/09/30 11:06:28;;;;;;;;;;;;;;;34.17;16.97;98965.25;5036089;28;19948;-90
2023/09/30 11:08:56;;;;;;;;;;;;;;;34.25;17.33;98972.06;5019271;28;20157;-88
2023/09/30 11:11:54;;;;;;;;;;;;;;;34.29;16.75;98969.66;5033403;28;19917;-86
2023/09/30 11:14:26;;;;;;;;;;;;;;;34.30;16.86;98968.56;5072492;28;19916;-88
2023/09/30 11:16:52;;;;;;;;;;;;;;;34.38;16.81;98966.16;5071159;28;19917;-90
2023/09/30 11:19:20;;;;;;;;;;;;;;;34.37;16.74;98963.72;5055531;28;20346;-88
2023/09/30 11:21:46;;;;;;;;;;;;;;;34.35;16.73;98961.28;5038858;28;20012;-87
2023/09/30 11:24:11;;;;;;;;;;;;;;;34.32;16.81;98961.81;5059022;28;19948;-90
2023/09/30 11:26:37;;;;;;;;;;;;;;;34.21;16.52;98960.94;5061146;28;19979;-88
2023/09/30 11:29:18;;;;;;;;;;;;;;;34.18;16.33;98961.47;5065923;28;19900;-93
2023/09/30 11:31:44;;;;;;;;;;;;;;;34.07;16.61;98967.94;5065932;28;19920;-85
2023/09/30 11:34:09;;;;;;;;;;;;;;;33.93;17.74;98966.81;5073204;28;19920;-79
2023/09/30 11:36:38;;;;;;;;;;;;;;;33.75;19.68;98959.94;5053092;28;19920;-83
2023/09/30 11:39:03;;;;;;;;;;;;;;;33.51;20.06;98973.88;5053991;28;19928;-84
2023/09/30 11:41:43;;;;;;;;;;;;;;;33.28;20.40;98959.69;5036390;28;19926;-81
2023/09/30 11:44:10;;;;;;;;;;;;;;;33.12;20.18;98961.44;5038466;28;19950;-83
2023/09/30 11:46:55;;;;;;;;;;;;;;;32.97;20.75;98954.03;5036999;28;19924;-85
2023/09/30 11:49:34;;;;;;;;;;;;;;;32.75;20.59;98958.72;5028984;28;19921;-83
2023/09/30 11:52:00;;;;;;;;;;;;;;;32.57;20.48;98962.59;5031636;28;20422;-83
2023/09/30 11:54:32;;;;;;;;;;;;;;;32.37;20.70;98953.22;5032847;28;19917;-84
2023/09/30 11:56:58;;;;;;;;;;;;;;;32.25;20.93;98952.56;5014524;28;19971;-84
2023/09/30 11:59:24;;;;;;;;;;;;;;;32.14;20.83;98940.00;5014717;28;19987;-82
2023/09/30 12:01:49;;;;;;;;;;;;;;;32.02;20.86;98948.22;5031915;28;19917;-83
2023/09/30 12:04:17;;;;;;;;;;;;;;;31.89;21.23;98933.22;5015503;28;19921;-81
2023/09/30 12:06:42;;;;;;;;;;;;;;;31.80;20.99;98935.56;5032940;28;20024;-80
2023/09/30 12:09:13;;;;;;;;;;;;;;;31.69;21.30;98925.69;5014790;28;19917;-82
2023/09/30 12:11:38;;;;;;;;;;;;;;;31.59;21.26;98936.38;5031272;28;19923;-87
2023/09/30 12:14:04;;;;;;;;;;;;;;;31.49;21.41;98932.44;5015584;28;19917;-84
2023/09/30 12:16:30;;;;;;;;;;;;;;;31.42;21.70;98926.38;5029928;28;19917;-84
2023/09/30 12:18:56;;;;;;;;;;;;;;;31.42;21.25;98931.78;4995756;28;20004;-86
2023/09/30 12:21:22;;;;;;;;;;;;;;;31.40;21.47;98923.13;5011480;28;20401;-83
2023/09/30 12:23:48;;;;;;;;;;;;;;;31.38;21.26;98927.97;5011240;28;19921;-84
2023/09/30 12:26:14;;;;;;;;;;;;;;;31.38;21.49;98917.19;4994951;28;19980;-84
2023/09/30 12:28:40;;;;;;;;;;;;;;;31.35;21.76;98915.78;5011082;28;20369;-84
2023/09/30 12:31:06;;;;;;;;;;;;;;;31.37;21.90;98915.53;4995844;28;19960;-82
2023/09/30 12:33:32;;;;;;;;;;;;;;;31.35;21.86;98910.38;5011366;28;19941;-82
2023/09/30 12:35:58;;;;;;;;;;;;;;;31.33;21.80;98904.44;4995350;28;19925;-76
2023/09/30 12:38:25;;;;;;;;;;;;;;;31.27;21.76;98907.31;5011417;28;19924;-77
2023/09/30 12:40:50;;;;;;;;;;;;;;;31.19;20.64;98909.38;5011120;28;19925;-76
2023/09/30 12:43:16;;;;;;;;;;;;;;;31.17;20.62;98913.38;5010492;28;20305;-75
2023/09/30 12:45:41;;;;;;;;;;;;;;;31.06;19.92;98907.03;4993633;28;19929;-74